createdAt,value
2022-09-06T00:00:13.169Z,16.60
2022-09-06T00:01:12.179Z,16.59
2022-09-06T00:02:12.591Z,16.59
2022-09-06T00:03:13.138Z,16.59
2022-09-06T00:04:15.459Z,16.58
2022-09-06T00:05:12.191Z,16.56
2022-09-06T00:06:12.145Z,16.55
2022-09-06T00:07:12.998Z,16.55
2022-09-06T00:08:12.085Z,16.52
2022-09-06T00:09:12.079Z,16.52
2022-09-06T00:10:12.023Z,16.49
2022-09-06T00:11:12.957Z,16.45
2022-09-06T00:12:12.024Z,16.45
2022-09-06T00:13:12.937Z,16.44
2022-09-06T00:14:12.035Z,16.42
2022-09-06T00:15:11.979Z,16.45
2022-09-06T00:16:12.082Z,16.49
2022-09-06T00:17:12.800Z,16.50
2022-09-06T00:18:12.917Z,16.52
2022-09-06T00:19:11.922Z,16.50
2022-09-06T00:20:14.361Z,16.48
2022-09-06T00:21:12.810Z,16.48
2022-09-06T00:22:12.880Z,16.44
2022-09-06T00:23:12.741Z,16.44
2022-09-06T00:24:13.879Z,16.41
2022-09-06T00:25:11.972Z,16.38
2022-09-06T00:26:12.533Z,16.40
2022-09-06T00:27:11.785Z,16.38
2022-09-06T00:28:11.775Z,16.35
2022-09-06T00:29:12.742Z,16.35
2022-09-06T00:30:12.586Z,16.33
2022-09-06T00:31:11.882Z,16.30
2022-09-06T00:32:12.228Z,16.30
2022-09-06T00:33:12.560Z,16.31
2022-09-06T00:34:11.713Z,16.30
2022-09-06T00:35:12.819Z,16.35
2022-09-06T00:36:12.540Z,16.38
2022-09-06T00:37:11.639Z,16.40
2022-09-06T00:38:12.576Z,16.41
2022-09-06T00:39:11.666Z,16.42
2022-09-06T00:40:12.468Z,16.41
2022-09-06T00:41:11.636Z,16.40
2022-09-06T00:42:12.553Z,16.41
2022-09-06T00:43:11.569Z,16.40
2022-09-06T00:44:12.518Z,16.38
2022-09-06T00:45:12.421Z,16.37
2022-09-06T00:46:11.591Z,16.35
2022-09-06T00:47:11.510Z,16.33
2022-09-06T00:48:12.413Z,16.30
2022-09-06T00:49:12.290Z,16.27
2022-09-06T00:50:11.568Z,16.27
2022-09-06T00:51:11.521Z,16.27
2022-09-06T00:52:12.181Z,16.26
2022-09-06T00:53:11.532Z,16.26
2022-09-06T00:54:12.330Z,16.26
2022-09-06T00:55:11.404Z,16.23
2022-09-06T00:56:11.438Z,16.25
2022-09-06T00:57:11.405Z,16.26
2022-09-06T00:58:11.358Z,16.27
2022-09-06T00:59:12.702Z,16.27
2022-09-06T01:00:11.367Z,16.31
2022-09-06T01:01:12.504Z,16.31
2022-09-06T01:02:11.381Z,16.30
2022-09-06T01:03:11.303Z,16.31
2022-09-06T01:04:11.273Z,16.30
2022-09-06T01:05:11.306Z,16.27
2022-09-06T01:06:14.484Z,16.25
2022-09-06T01:07:11.883Z,16.22
2022-09-06T01:08:11.229Z,16.20
2022-09-06T01:09:12.166Z,16.22
2022-09-06T01:10:12.067Z,16.18
2022-09-06T01:11:11.988Z,16.18
2022-09-06T01:12:12.141Z,16.16
2022-09-06T01:13:12.083Z,16.18
2022-09-06T01:14:11.946Z,16.20
2022-09-06T01:15:11.548Z,16.26
2022-09-06T01:16:11.158Z,16.27
2022-09-06T01:17:11.575Z,16.27
2022-09-06T01:18:12.073Z,16.26
2022-09-06T01:19:11.978Z,16.26
2022-09-06T01:20:11.059Z,16.26
2022-09-06T01:21:11.059Z,16.26
2022-09-06T01:22:11.023Z,16.25
2022-09-06T01:23:11.072Z,16.23
2022-09-06T01:24:12.013Z,16.18
2022-09-06T01:25:11.010Z,16.18
2022-09-06T01:26:11.822Z,16.15
2022-09-06T01:27:10.970Z,16.18
2022-09-06T01:28:10.957Z,16.18
2022-09-06T01:29:11.274Z,16.16
2022-09-06T01:30:11.690Z,16.18
2022-09-06T01:31:11.047Z,16.22
2022-09-06T01:32:11.755Z,16.20
2022-09-06T01:33:11.654Z,16.18
2022-09-06T01:34:11.825Z,16.22
2022-09-06T01:35:12.793Z,16.23
2022-09-06T01:36:11.623Z,16.26
2022-09-06T01:37:11.171Z,16.30
2022-09-06T01:38:10.816Z,16.33
2022-09-06T01:39:10.822Z,16.34
2022-09-06T01:40:10.931Z,16.35
2022-09-06T01:41:10.776Z,16.37
2022-09-06T01:42:10.774Z,16.37
2022-09-06T01:43:11.737Z,16.37
2022-09-06T01:44:10.723Z,16.37
2022-09-06T01:45:10.725Z,16.37
2022-09-06T01:46:11.694Z,16.38
2022-09-06T01:47:10.675Z,16.37
2022-09-06T01:48:10.827Z,16.37
2022-09-06T01:49:11.690Z,16.35
2022-09-06T01:50:11.482Z,16.33
2022-09-06T01:51:10.791Z,16.33
2022-09-06T01:52:10.905Z,16.33
2022-09-06T01:53:11.081Z,16.33
2022-09-06T01:54:11.427Z,16.34
2022-09-06T01:55:11.329Z,16.34
2022-09-06T01:56:11.561Z,16.34
2022-09-06T01:57:10.549Z,16.34
2022-09-06T01:58:10.547Z,16.34
2022-09-06T01:59:10.659Z,16.38
2022-09-06T02:00:11.369Z,16.38
2022-09-06T02:01:10.601Z,16.40
2022-09-06T02:02:11.509Z,16.37
2022-09-06T02:03:10.499Z,16.35
2022-09-06T02:04:11.236Z,16.35
2022-09-06T02:05:10.470Z,16.33
2022-09-06T02:06:10.444Z,16.30
2022-09-06T02:07:12.407Z,16.30
2022-09-06T02:08:11.361Z,16.25
2022-09-06T02:09:11.270Z,16.25
2022-09-06T02:10:11.247Z,16.26
2022-09-06T02:11:10.381Z,16.30
2022-09-06T02:12:12.396Z,16.31
2022-09-06T02:13:10.362Z,16.33
2022-09-06T02:14:11.302Z,16.34
2022-09-06T02:15:11.242Z,16.35
2022-09-06T02:16:11.109Z,16.38
2022-09-06T02:17:11.322Z,16.42
2022-09-06T02:18:11.175Z,16.45
2022-09-06T02:19:10.254Z,16.49
2022-09-06T02:20:10.984Z,16.49
2022-09-06T02:21:11.150Z,16.49
2022-09-06T02:22:10.241Z,16.49
2022-09-06T02:23:10.994Z,16.49
2022-09-06T02:24:11.206Z,16.44
2022-09-06T02:25:11.017Z,16.44
2022-09-06T02:26:10.175Z,16.44
2022-09-06T02:27:11.092Z,16.44
2022-09-06T02:28:10.984Z,16.44
2022-09-06T02:29:10.119Z,16.42
2022-09-06T02:30:11.049Z,16.41
2022-09-06T02:31:10.211Z,16.37
2022-09-06T02:32:10.077Z,16.35
2022-09-06T02:33:10.049Z,16.40
2022-09-06T02:34:11.978Z,16.41
2022-09-06T02:35:10.818Z,16.42
2022-09-06T02:36:11.065Z,16.44
2022-09-06T02:37:10.889Z,16.44
2022-09-06T02:38:10.969Z,16.44
2022-09-06T02:39:10.949Z,16.44
2022-09-06T02:40:10.059Z,16.44
2022-09-06T02:41:10.766Z,16.45
2022-09-06T02:42:10.919Z,16.48
2022-09-06T02:43:09.918Z,16.45
2022-09-06T02:44:10.730Z,16.45
2022-09-06T02:45:10.892Z,16.48
2022-09-06T02:46:09.952Z,16.49
2022-09-06T02:47:10.694Z,16.50
2022-09-06T02:48:09.878Z,16.48
2022-09-06T02:49:09.821Z,16.44
2022-09-06T02:50:09.816Z,16.42
2022-09-06T02:51:09.837Z,16.41
2022-09-06T02:52:10.734Z,16.41
2022-09-06T02:53:10.655Z,16.38
2022-09-06T02:54:10.537Z,16.37
2022-09-06T02:55:09.746Z,16.35
2022-09-06T02:56:09.723Z,16.37
2022-09-06T02:57:09.779Z,16.38
2022-09-06T02:58:09.694Z,16.37
2022-09-06T02:59:10.611Z,16.37
2022-09-06T03:00:09.711Z,16.38
2022-09-06T03:01:09.703Z,16.35
2022-09-06T03:02:10.576Z,16.34
2022-09-06T03:03:09.679Z,16.33
2022-09-06T03:04:09.679Z,16.33
2022-09-06T03:05:09.607Z,16.33
2022-09-06T03:06:09.597Z,16.34
2022-09-06T03:07:09.579Z,16.33
2022-09-06T03:08:10.471Z,16.31
2022-09-06T03:09:09.587Z,16.33
2022-09-06T03:10:09.568Z,16.34
2022-09-06T03:11:09.567Z,16.34
2022-09-06T03:12:10.337Z,16.33
2022-09-06T03:13:09.515Z,16.33
2022-09-06T03:14:09.527Z,16.35
2022-09-06T03:15:09.498Z,16.35
2022-09-06T03:16:09.471Z,16.35
2022-09-06T03:17:11.405Z,16.34
2022-09-06T03:18:10.279Z,16.33
2022-09-06T03:19:10.185Z,16.33
2022-09-06T03:20:09.466Z,16.33
2022-09-06T03:21:10.249Z,16.31
2022-09-06T03:22:10.152Z,16.30
2022-09-06T03:23:09.379Z,16.30
2022-09-06T03:24:10.212Z,16.30
2022-09-06T03:25:09.358Z,16.27
2022-09-06T03:26:09.321Z,16.27
2022-09-06T03:27:09.305Z,16.25
2022-09-06T03:28:10.092Z,16.23
2022-09-06T03:29:10.252Z,16.23
2022-09-06T03:30:10.150Z,16.20
2022-09-06T03:31:10.113Z,16.20
2022-09-06T03:32:10.245Z,16.18
2022-09-06T03:33:09.221Z,16.20
2022-09-06T03:34:11.213Z,16.20
2022-09-06T03:35:09.567Z,16.20
2022-09-06T03:36:09.187Z,16.20
2022-09-06T03:37:09.179Z,16.18
2022-09-06T03:38:09.895Z,16.20
2022-09-06T03:39:09.203Z,16.20
2022-09-06T03:40:10.013Z,16.16
2022-09-06T03:41:10.119Z,16.14
2022-09-06T03:42:10.026Z,16.11
2022-09-06T03:43:09.098Z,16.07
2022-09-06T03:44:09.046Z,16.06
2022-09-06T03:45:09.988Z,16.04
2022-09-06T03:46:09.972Z,16.00
2022-09-06T03:47:09.797Z,16.00
2022-09-06T03:48:09.957Z,16.00
2022-09-06T03:49:09.903Z,15.99
2022-09-06T03:50:10.922Z,15.97
2022-09-06T03:51:09.933Z,15.97
2022-09-06T03:52:09.901Z,15.96
2022-09-06T03:53:08.952Z,15.96
2022-09-06T03:54:08.960Z,15.93
2022-09-06T03:55:09.802Z,15.92
2022-09-06T03:56:09.703Z,15.85
2022-09-06T03:57:09.860Z,15.85
2022-09-06T03:58:08.849Z,15.82
2022-09-06T03:59:08.918Z,15.84
2022-09-06T04:00:09.830Z,15.84
2022-09-06T04:01:10.835Z,15.84
2022-09-06T04:02:09.423Z,15.85
2022-09-06T04:03:08.803Z,15.82
2022-09-06T04:04:08.890Z,15.82
2022-09-06T04:05:10.300Z,15.82
2022-09-06T04:06:08.809Z,15.85
2022-09-06T04:07:08.872Z,15.92
2022-09-06T04:08:09.575Z,15.92
2022-09-06T04:09:09.524Z,15.92
2022-09-06T04:10:09.646Z,15.92
2022-09-06T04:11:08.713Z,15.89
2022-09-06T04:12:10.645Z,15.88
2022-09-06T04:13:09.417Z,15.88
2022-09-06T04:14:17.973Z,15.88
2022-09-06T04:15:09.413Z,15.86
2022-09-06T04:16:08.649Z,15.84
2022-09-06T04:17:09.488Z,15.84
2022-09-06T04:18:10.406Z,15.85
2022-09-06T04:19:09.547Z,15.84
2022-09-06T04:20:09.488Z,15.82
2022-09-06T04:21:09.348Z,15.79
2022-09-06T04:22:11.640Z,15.78
2022-09-06T04:23:36.396Z,15.76
2022-09-06T04:24:20.960Z,15.76
2022-09-06T04:25:09.615Z,15.75
2022-09-06T04:26:09.507Z,15.72
2022-09-06T04:27:09.304Z,15.70
2022-09-06T04:28:08.450Z,15.68
2022-09-06T04:29:09.351Z,15.68
2022-09-06T04:30:08.656Z,15.67
2022-09-06T04:31:12.112Z,15.66
2022-09-06T04:32:15.480Z,15.64
2022-09-06T04:33:08.661Z,15.61
2022-09-06T04:34:10.354Z,15.59
2022-09-06T04:35:08.691Z,15.57
2022-09-06T04:36:09.291Z,15.54
2022-09-06T04:37:09.115Z,15.54
2022-09-06T04:38:08.321Z,15.52
2022-09-06T04:39:09.167Z,15.51
2022-09-06T04:40:08.386Z,15.49
2022-09-06T04:41:09.227Z,15.46
2022-09-06T04:42:08.292Z,15.43
2022-09-06T04:43:08.325Z,15.42
2022-09-06T04:44:09.244Z,15.41
2022-09-06T04:45:09.094Z,15.41
2022-09-06T04:46:09.051Z,15.41
2022-09-06T04:47:09.605Z,15.41
2022-09-06T04:48:08.260Z,15.42
2022-09-06T04:49:08.969Z,15.39
2022-09-06T04:50:08.226Z,15.39
2022-09-06T04:51:08.683Z,15.38
2022-09-06T04:52:08.939Z,15.39
2022-09-06T04:53:08.754Z,15.41
2022-09-06T04:54:09.000Z,15.41
2022-09-06T04:55:08.079Z,15.41
2022-09-06T04:56:09.066Z,15.41
2022-09-06T04:57:08.112Z,15.42
2022-09-06T04:58:08.875Z,15.41
2022-09-06T04:59:08.779Z,15.42
2022-09-06T05:00:08.129Z,15.43
2022-09-06T05:01:08.947Z,15.42
2022-09-06T05:02:08.115Z,15.42
2022-09-06T05:03:12.051Z,15.39
2022-09-06T05:04:08.072Z,15.38
2022-09-06T05:05:08.112Z,15.38
2022-09-06T05:06:08.071Z,15.38
2022-09-06T05:07:07.953Z,15.38
2022-09-06T05:08:08.681Z,15.41
2022-09-06T05:09:07.944Z,15.41
2022-09-06T05:10:08.747Z,15.41
2022-09-06T05:11:08.657Z,15.42
2022-09-06T05:12:08.017Z,15.42
2022-09-06T05:13:08.780Z,15.41
2022-09-06T05:14:08.622Z,15.42
2022-09-06T05:15:08.785Z,15.43
2022-09-06T05:16:08.765Z,15.43
2022-09-06T05:17:08.509Z,15.46
2022-09-06T05:18:11.784Z,15.45
2022-09-06T05:19:08.764Z,15.46
2022-09-06T05:20:07.873Z,15.49
2022-09-06T05:21:07.797Z,15.49
2022-09-06T05:22:09.614Z,15.52
2022-09-06T05:23:10.834Z,15.56
2022-09-06T05:24:07.726Z,15.59
2022-09-06T05:25:08.606Z,15.61
2022-09-06T05:26:07.636Z,15.63
2022-09-06T05:27:07.875Z,15.66
2022-09-06T05:28:07.631Z,15.66
2022-09-06T05:29:07.683Z,15.67
2022-09-06T05:30:10.576Z,15.67
2022-09-06T05:31:08.520Z,15.68
2022-09-06T05:32:07.642Z,15.74
2022-09-06T05:33:09.021Z,15.76
2022-09-06T05:34:07.719Z,15.78
2022-09-06T05:35:09.158Z,15.78
2022-09-06T05:36:09.478Z,15.78
2022-09-06T05:37:07.525Z,15.79
2022-09-06T05:38:07.496Z,15.82
2022-09-06T05:39:08.423Z,15.84
2022-09-06T05:40:07.612Z,15.84
2022-09-06T05:41:08.439Z,15.84
2022-09-06T05:42:08.925Z,15.84
2022-09-06T05:43:08.404Z,15.84
2022-09-06T05:44:08.374Z,15.85
2022-09-06T05:45:07.361Z,15.86
2022-09-06T05:46:08.452Z,15.89
2022-09-06T05:47:07.376Z,15.89
2022-09-06T05:48:09.378Z,15.92
2022-09-06T05:49:08.089Z,15.93
2022-09-06T05:50:08.233Z,15.96
2022-09-06T05:51:09.256Z,15.96
2022-09-06T05:52:08.043Z,15.99
2022-09-06T05:53:08.206Z,15.97
2022-09-06T05:54:09.197Z,16.00
2022-09-06T05:55:11.300Z,16.01
2022-09-06T05:56:07.374Z,16.06
2022-09-06T05:57:09.224Z,16.07
2022-09-06T05:58:07.975Z,16.09
2022-09-06T05:59:08.070Z,16.11
2022-09-06T06:00:08.016Z,16.16
2022-09-06T06:01:08.373Z,16.20
2022-09-06T06:02:08.270Z,16.23
2022-09-06T06:03:07.546Z,16.26
2022-09-06T06:04:09.570Z,16.26
2022-09-06T06:05:08.084Z,16.31
2022-09-06T06:06:07.909Z,16.33
2022-09-06T06:07:07.878Z,16.34
2022-09-06T06:08:08.059Z,16.35
2022-09-06T06:09:08.029Z,16.40
2022-09-06T06:10:07.059Z,16.40
2022-09-06T06:11:08.011Z,16.42
2022-09-06T06:12:07.852Z,16.45
2022-09-06T06:13:07.062Z,16.50
2022-09-06T06:14:07.142Z,16.50
2022-09-06T06:15:08.969Z,16.52
2022-09-06T06:16:06.984Z,16.53
2022-09-06T06:17:07.690Z,16.56
2022-09-06T06:18:06.884Z,16.56
2022-09-06T06:19:12.703Z,16.59
2022-09-06T06:20:07.731Z,16.60
2022-09-06T06:21:06.888Z,16.62
2022-09-06T06:22:07.583Z,16.65
2022-09-06T06:23:06.820Z,16.68
2022-09-06T06:24:07.254Z,16.68
2022-09-06T06:25:07.699Z,16.68
2022-09-06T06:26:06.826Z,16.73
2022-09-06T06:27:07.793Z,16.75
2022-09-06T06:28:06.743Z,16.75
2022-09-06T06:29:07.564Z,16.74
2022-09-06T06:30:06.725Z,16.77
2022-09-06T06:31:07.368Z,16.80
2022-09-06T06:32:07.667Z,16.86
2022-09-06T06:33:07.426Z,16.89
2022-09-06T06:34:06.665Z,16.92
2022-09-06T06:35:06.653Z,16.95
2022-09-06T06:36:07.466Z,16.98
2022-09-06T06:37:06.649Z,17.06
2022-09-06T06:38:06.684Z,17.08
2022-09-06T06:39:06.608Z,17.15
2022-09-06T06:40:06.747Z,17.22
2022-09-06T06:41:07.449Z,17.25
2022-09-06T06:42:07.365Z,17.38
2022-09-06T06:43:06.563Z,17.46
2022-09-06T06:44:06.559Z,17.50
2022-09-06T06:45:07.307Z,17.55
2022-09-06T06:46:06.594Z,17.48
2022-09-06T06:47:07.375Z,17.51
2022-09-06T06:48:07.323Z,17.54
2022-09-06T06:49:07.437Z,17.54
2022-09-06T06:50:07.333Z,17.54
2022-09-06T06:51:06.430Z,17.57
2022-09-06T06:52:06.442Z,17.63
2022-09-06T06:53:06.443Z,17.63
2022-09-06T06:54:06.408Z,17.63
2022-09-06T06:55:06.445Z,17.63
2022-09-06T06:56:07.272Z,17.69
2022-09-06T06:57:06.413Z,17.71
2022-09-06T06:58:07.334Z,17.79
2022-09-06T06:59:06.313Z,17.81
2022-09-06T07:00:07.143Z,17.76
2022-09-06T07:01:07.483Z,17.71
2022-09-06T07:02:08.320Z,17.73
2022-09-06T07:03:07.113Z,17.69
2022-09-06T07:04:06.236Z,17.67
2022-09-06T07:08:11.874Z,17.57
2022-09-06T07:09:06.281Z,17.57
2022-09-06T07:11:08.140Z,17.59
2022-09-06T07:12:06.139Z,17.63
2022-09-06T07:13:06.770Z,17.69
2022-09-06T07:14:06.381Z,17.69
2022-09-06T07:15:06.987Z,17.73
2022-09-06T07:16:06.924Z,17.78
2022-09-06T07:17:08.827Z,17.78
2022-09-06T07:18:06.981Z,17.79
2022-09-06T07:19:06.975Z,17.79
2022-09-06T07:20:14.756Z,17.82
2022-09-06T07:22:10.509Z,17.89
2022-09-06T07:24:08.881Z,17.81
2022-09-06T07:25:06.833Z,17.81
2022-09-06T07:26:05.933Z,17.87
2022-09-06T07:28:07.782Z,17.87
2022-09-06T07:29:05.946Z,17.84
2022-09-06T07:30:06.823Z,17.88
2022-09-06T07:31:07.347Z,17.89
2022-09-06T07:32:13.019Z,17.87
2022-09-06T07:33:06.844Z,17.85
2022-09-06T07:34:05.853Z,17.87
2022-09-06T07:35:06.668Z,17.85
2022-09-06T07:36:05.846Z,17.88
2022-09-06T07:37:05.840Z,17.92
2022-09-06T07:38:05.778Z,17.95
2022-09-06T07:39:05.755Z,18.00
2022-09-06T07:40:05.804Z,17.99
2022-09-06T07:41:05.814Z,18.00
2022-09-06T07:42:06.699Z,18.04
2022-09-06T07:43:06.599Z,18.10
2022-09-06T07:44:06.512Z,18.33
2022-09-06T07:45:06.634Z,18.50
2022-09-06T07:46:05.657Z,18.54
2022-09-06T07:48:06.679Z,18.42
2022-09-06T07:49:05.656Z,18.43
2022-09-06T07:51:06.737Z,18.39
2022-09-06T07:53:11.219Z,18.34
2022-09-06T07:54:29.426Z,18.40
2022-09-06T07:55:06.547Z,18.44
2022-09-06T07:56:06.417Z,18.46
2022-09-06T07:57:05.541Z,18.50
2022-09-06T07:58:05.492Z,18.57
2022-09-06T07:59:05.497Z,18.58
2022-09-06T08:00:05.478Z,18.62
2022-09-06T08:01:06.543Z,18.58
2022-09-06T08:02:05.640Z,18.59
2022-09-06T08:03:05.460Z,18.70
2022-09-06T08:04:06.374Z,18.76
2022-09-06T08:09:06.427Z,19.23
2022-09-06T08:10:05.326Z,19.35
2022-09-06T08:11:05.325Z,19.40
2022-09-06T08:12:05.346Z,19.47
2022-09-06T08:13:06.257Z,19.53
2022-09-06T08:14:05.575Z,19.51
2022-09-06T08:15:05.813Z,19.57
2022-09-06T08:16:06.024Z,19.57
2022-09-06T08:17:05.252Z,19.63
2022-09-06T08:18:05.220Z,19.61
2022-09-06T08:19:05.334Z,19.63
2022-09-06T08:20:05.297Z,19.65
2022-09-06T08:21:09.064Z,19.63
2022-09-06T08:22:06.950Z,19.53
2022-09-06T08:23:05.443Z,19.46
2022-09-06T08:24:06.022Z,19.48
2022-09-06T08:25:05.103Z,19.54
2022-09-06T08:26:06.060Z,19.58
2022-09-06T08:27:05.964Z,19.55
2022-09-06T08:28:05.864Z,19.47
2022-09-06T08:29:05.258Z,19.46
2022-09-06T08:30:05.941Z,19.43
2022-09-06T08:31:05.175Z,19.46
2022-09-06T08:32:05.996Z,19.46
2022-09-06T08:33:05.028Z,19.48
2022-09-06T08:34:05.801Z,19.48
2022-09-06T08:35:05.970Z,19.47
2022-09-06T08:36:05.026Z,19.47
2022-09-06T08:37:05.045Z,19.46
2022-09-06T08:38:05.053Z,19.46
2022-09-06T08:39:04.927Z,19.48
2022-09-06T08:40:05.248Z,19.47
2022-09-06T08:41:06.005Z,19.48
2022-09-06T08:42:04.902Z,19.51
2022-09-06T08:43:05.107Z,19.50
2022-09-06T08:45:05.824Z,19.47
2022-09-06T08:46:04.907Z,19.46
2022-09-06T08:47:04.861Z,19.39
2022-09-06T08:48:05.758Z,19.38
2022-09-06T08:49:04.871Z,19.31
2022-09-06T08:50:04.825Z,19.33
2022-09-06T08:51:05.707Z,19.33
2022-09-06T08:52:05.621Z,19.24
2022-09-06T08:53:19.961Z,19.21
2022-09-06T08:54:06.700Z,19.21
2022-09-06T08:55:05.643Z,19.20
2022-09-06T08:56:04.966Z,19.13
2022-09-06T08:57:04.805Z,19.15
2022-09-06T08:58:05.545Z,19.17
2022-09-06T08:59:04.930Z,19.17
2022-09-06T09:00:06.393Z,19.17
2022-09-06T09:01:05.596Z,19.06
2022-09-06T09:02:04.697Z,19.02
2022-09-06T09:03:05.624Z,18.99
2022-09-06T09:04:05.487Z,18.94
2022-09-06T09:05:05.415Z,18.94
2022-09-06T09:06:05.619Z,18.95
2022-09-06T09:07:05.447Z,18.90
2022-09-06T09:08:04.554Z,18.90
2022-09-06T09:09:04.506Z,18.94
2022-09-06T09:10:04.546Z,18.94
2022-09-06T09:11:04.669Z,18.95
2022-09-06T09:12:04.495Z,18.97
2022-09-06T09:13:04.623Z,19.01
2022-09-06T09:14:04.476Z,19.01
2022-09-06T09:15:05.201Z,18.95
2022-09-06T09:16:04.436Z,18.90
2022-09-06T09:17:04.433Z,18.90
2022-09-06T09:18:05.159Z,18.87
2022-09-06T09:19:04.417Z,18.87
2022-09-06T09:20:05.224Z,18.91
2022-09-06T09:21:04.371Z,18.91
2022-09-06T09:22:05.288Z,18.94
2022-09-06T09:23:04.318Z,18.97
2022-09-06T09:24:04.292Z,18.98
2022-09-06T09:25:05.261Z,18.99
2022-09-06T09:26:04.274Z,18.95
2022-09-06T09:27:04.273Z,18.95
2022-09-06T09:28:04.242Z,18.97
2022-09-06T09:29:04.301Z,18.98
2022-09-06T09:31:07.285Z,18.99
2022-09-06T09:32:04.279Z,18.99
2022-09-06T09:33:05.022Z,18.98
2022-09-06T09:34:04.194Z,18.95
2022-09-06T09:35:04.145Z,18.92
2022-09-06T09:36:04.146Z,18.95
2022-09-06T09:38:09.493Z,18.98
2022-09-06T09:39:05.986Z,18.97
2022-09-06T09:40:04.480Z,18.97
2022-09-06T09:41:04.993Z,18.99
2022-09-06T09:42:04.909Z,19.02
2022-09-06T09:43:04.047Z,19.06
2022-09-06T09:44:05.274Z,19.06
2022-09-06T09:45:04.868Z,19.05
2022-09-06T09:46:04.781Z,19.01
2022-09-06T09:47:04.230Z,19.01
2022-09-06T09:48:04.003Z,19.02
2022-09-06T09:49:03.948Z,19.08
2022-09-06T09:50:04.923Z,19.10
2022-09-06T09:51:03.969Z,19.13
2022-09-06T09:52:03.916Z,19.15
2022-09-06T09:53:03.937Z,19.21
2022-09-06T09:54:03.905Z,19.24
2022-09-06T09:55:04.685Z,19.25
2022-09-06T09:56:03.848Z,19.28
2022-09-06T09:57:05.446Z,19.24
2022-09-06T09:58:03.811Z,19.23
2022-09-06T09:59:03.822Z,19.21
2022-09-06T10:00:04.711Z,19.18
2022-09-06T10:01:03.843Z,19.18
2022-09-06T10:02:03.836Z,19.23
2022-09-06T10:03:03.820Z,19.25
2022-09-06T10:05:05.170Z,19.32
2022-09-06T10:06:04.662Z,19.32
2022-09-06T10:08:04.461Z,19.28
2022-09-06T10:09:03.646Z,19.35
2022-09-06T10:10:04.006Z,19.42
2022-09-06T10:11:03.605Z,19.50
2022-09-06T10:12:04.623Z,19.57
2022-09-06T10:13:03.644Z,19.63
2022-09-06T10:14:03.907Z,19.69
2022-09-06T10:15:06.924Z,19.70
2022-09-06T10:16:03.622Z,19.72
2022-09-06T10:17:04.375Z,19.73
2022-09-06T10:18:03.571Z,19.73
2022-09-06T10:19:04.466Z,19.76
2022-09-06T10:20:03.560Z,19.76
2022-09-06T10:21:03.494Z,19.76
2022-09-06T10:22:03.535Z,19.80
2022-09-06T10:23:03.499Z,19.87
2022-09-06T10:25:06.419Z,20.05
2022-09-06T10:26:03.389Z,20.13
2022-09-06T10:27:03.430Z,20.18
2022-09-06T10:28:11.972Z,20.23
2022-09-06T10:29:05.253Z,20.34
2022-09-06T10:30:04.192Z,20.43
2022-09-06T10:31:03.573Z,20.46
2022-09-06T10:32:03.322Z,20.49
2022-09-06T10:33:04.135Z,20.50
2022-09-06T10:34:04.262Z,20.54
2022-09-06T10:35:03.304Z,20.50
2022-09-06T10:36:03.369Z,20.53
2022-09-06T10:37:04.233Z,20.53
2022-09-06T10:38:04.152Z,20.53
2022-09-06T10:39:04.223Z,20.51
2022-09-06T10:40:04.231Z,20.56
2022-09-06T10:41:03.196Z,20.56
2022-09-06T10:42:04.027Z,20.59
2022-09-06T10:43:03.166Z,20.59
2022-09-06T10:44:03.324Z,20.58
2022-09-06T10:45:03.152Z,20.65
2022-09-06T10:46:03.252Z,20.72
2022-09-06T10:47:04.043Z,20.83
2022-09-06T10:48:03.118Z,20.91
2022-09-06T10:49:05.025Z,20.99
2022-09-06T10:50:03.080Z,21.02
2022-09-06T10:51:05.030Z,21.08
2022-09-06T10:52:03.470Z,21.16
2022-09-06T10:53:03.439Z,21.20
2022-09-06T10:54:03.345Z,21.27
2022-09-06T10:55:03.042Z,21.32
2022-09-06T10:56:03.057Z,21.34
2022-09-06T10:57:03.981Z,21.34
2022-09-06T10:58:19.228Z,21.36
2022-09-06T11:00:03.954Z,21.45
2022-09-06T11:01:03.973Z,21.54
2022-09-06T11:02:03.120Z,21.60
2022-09-06T11:04:06.716Z,21.72
2022-09-06T11:06:03.880Z,21.67
2022-09-06T11:07:03.005Z,21.63
2022-09-06T11:09:03.798Z,21.69
2022-09-06T11:10:02.889Z,21.74
2022-09-06T11:11:02.857Z,21.74
2022-09-06T11:12:03.687Z,21.79
2022-09-06T11:13:02.840Z,21.82
2022-09-06T11:14:05.671Z,21.83
2022-09-06T11:15:02.725Z,21.88
2022-09-06T11:16:02.759Z,21.95
2022-09-06T11:17:02.678Z,21.98
2022-09-06T11:18:03.006Z,22.02
2022-09-06T11:19:02.660Z,22.07
2022-09-06T11:20:02.698Z,21.98
2022-09-06T11:21:03.718Z,21.91
2022-09-06T11:22:02.648Z,21.92
2022-09-06T11:23:02.627Z,21.92
2022-09-06T11:24:03.656Z,21.91
2022-09-06T11:25:02.853Z,21.85
2022-09-06T11:26:02.690Z,21.78
2022-09-06T11:27:02.571Z,21.78
2022-09-06T11:28:02.634Z,21.63
2022-09-06T11:29:02.555Z,21.60
2022-09-06T11:30:03.058Z,21.66
2022-09-06T11:31:02.562Z,21.69
2022-09-06T11:32:18.321Z,21.72
2022-09-06T11:33:03.485Z,21.67
2022-09-06T11:34:04.435Z,21.75
2022-09-06T11:35:02.588Z,21.78
2022-09-06T11:36:02.850Z,21.83
2022-09-06T11:37:02.500Z,21.91
2022-09-06T11:38:02.482Z,21.95
2022-09-06T11:39:03.412Z,22.02
2022-09-06T11:41:03.401Z,22.10
2022-09-06T11:42:02.366Z,22.06
2022-09-06T11:43:02.448Z,22.04
2022-09-06T11:44:02.380Z,22.07
2022-09-06T11:45:02.356Z,22.14
2022-09-06T11:46:03.043Z,22.09
2022-09-06T11:47:03.147Z,22.09
2022-09-06T11:48:03.041Z,22.10
2022-09-06T11:49:02.265Z,22.04
2022-09-06T11:50:02.246Z,22.04
2022-09-06T11:51:02.219Z,22.02
2022-09-06T11:52:02.220Z,22.06
2022-09-06T11:53:02.175Z,22.02
2022-09-06T11:54:02.191Z,22.07
2022-09-06T11:55:02.163Z,22.06
2022-09-06T11:56:02.153Z,22.10
2022-09-06T11:57:02.183Z,22.14
2022-09-06T11:58:02.143Z,22.14
2022-09-06T11:59:02.115Z,22.16
2022-09-06T12:00:02.917Z,22.14
2022-09-06T12:01:02.199Z,22.19
2022-09-06T12:02:02.101Z,22.27
2022-09-06T12:05:02.078Z,22.19
2022-09-06T12:06:02.868Z,22.22
2022-09-06T12:07:01.988Z,22.22
2022-09-06T12:08:01.975Z,22.10
2022-09-06T12:09:02.843Z,22.06
2022-09-06T12:10:01.958Z,22.06
2022-09-06T12:11:02.083Z,22.06
2022-09-06T12:12:01.933Z,22.12
2022-09-06T12:13:01.979Z,22.12
2022-09-06T12:14:02.850Z,22.12
2022-09-06T12:15:02.757Z,22.12
2022-09-06T12:16:02.064Z,22.13
2022-09-06T12:17:02.824Z,22.16
2022-09-06T12:18:01.833Z,22.12
2022-09-06T12:19:02.663Z,22.16
2022-09-06T12:20:02.834Z,22.19
2022-09-06T12:21:01.794Z,22.20
2022-09-06T12:22:01.812Z,22.23
2022-09-06T12:23:01.839Z,22.25
2022-09-06T12:24:02.777Z,22.28
2022-09-06T12:25:02.090Z,22.35
2022-09-06T12:26:01.729Z,22.46
2022-09-06T12:27:01.751Z,22.54
2022-09-06T12:28:01.719Z,22.65
2022-09-06T12:29:02.437Z,22.69
2022-09-06T12:30:02.602Z,22.87
2022-09-06T12:31:01.715Z,23.01
2022-09-06T12:32:01.638Z,23.12
2022-09-06T12:33:01.708Z,23.20
2022-09-06T12:34:01.817Z,23.24
2022-09-06T12:36:05.833Z,23.46
2022-09-06T12:37:03.492Z,23.57
2022-09-06T12:38:01.576Z,23.67
2022-09-06T12:39:02.488Z,23.75
2022-09-06T12:40:01.621Z,23.79
2022-09-06T12:41:02.332Z,23.86
2022-09-06T12:42:02.473Z,23.95
2022-09-06T12:43:01.501Z,24.00
2022-09-06T12:44:01.505Z,23.95
2022-09-06T12:45:01.456Z,23.89
2022-09-06T12:46:01.583Z,23.90
2022-09-06T12:47:02.245Z,23.90
2022-09-06T12:48:01.550Z,23.77
2022-09-06T12:49:01.385Z,23.61
2022-09-06T12:50:02.230Z,23.47
2022-09-06T12:51:01.348Z,23.39
2022-09-06T12:52:03.301Z,23.31
2022-09-06T12:53:02.182Z,23.24
2022-09-06T12:54:01.374Z,23.20
2022-09-06T12:55:01.484Z,23.12
2022-09-06T12:56:01.385Z,23.02
2022-09-06T12:57:01.302Z,22.93
2022-09-06T12:58:01.287Z,22.78
2022-09-06T12:59:02.127Z,22.65
2022-09-06T13:00:01.235Z,22.52
2022-09-06T13:01:01.242Z,22.37
2022-09-06T13:02:01.332Z,22.25
2022-09-06T13:03:02.020Z,22.10
2022-09-06T13:04:03.227Z,22.01
2022-09-06T13:05:02.067Z,21.94
2022-09-06T13:06:01.192Z,21.91
2022-09-06T13:07:01.159Z,21.83
2022-09-06T13:08:02.029Z,21.78
2022-09-06T13:09:01.111Z,21.67
2022-09-06T13:10:01.095Z,21.60
2022-09-06T13:11:01.990Z,21.54
2022-09-06T13:12:01.901Z,21.50
2022-09-06T13:13:01.084Z,21.46
2022-09-06T13:14:02.032Z,21.44
2022-09-06T13:15:01.029Z,21.41
2022-09-06T13:16:03.017Z,21.35
2022-09-06T13:17:01.017Z,21.29
2022-09-06T13:18:01.001Z,21.26
2022-09-06T13:19:00.951Z,21.26
2022-09-06T13:20:01.937Z,21.21